createdAt,value
2023-02-04T00:02:08.491Z,74.16
2023-02-04T00:04:41.434Z,73.99
2023-02-04T00:07:14.552Z,74.21
2023-02-04T00:09:47.722Z,74.06
2023-02-04T00:12:22.061Z,74.25
2023-02-04T00:14:55.013Z,74.12
2023-02-04T00:17:27.972Z,74.31
2023-02-04T00:20:00.958Z,74.32
2023-02-04T00:22:33.890Z,74.51
2023-02-04T00:25:07.739Z,74.40
2023-02-04T00:27:42.147Z,74.60
2023-02-04T00:30:15.956Z,74.48
2023-02-04T00:32:49.604Z,74.44
2023-02-04T00:35:22.688Z,74.42
2023-02-04T00:37:55.993Z,74.37
2023-02-04T00:40:29.242Z,74.47
2023-02-04T00:43:03.862Z,74.49
2023-02-04T00:45:36.929Z,74.55
2023-02-04T00:48:09.884Z,74.59
2023-02-04T00:50:42.847Z,74.76
2023-02-04T00:53:15.791Z,74.75
2023-02-04T00:55:48.911Z,74.91
2023-02-04T00:58:23.252Z,74.67
2023-02-04T01:00:56.197Z,74.69
2023-02-04T01:03:29.179Z,74.81
2023-02-04T01:06:02.178Z,74.83
2023-02-04T01:08:35.139Z,74.74
2023-02-04T01:11:08.201Z,75.00
2023-02-04T01:13:42.568Z,74.73
2023-02-04T01:16:15.845Z,74.74
2023-02-04T01:18:50.467Z,74.80
2023-02-04T01:21:25.264Z,74.86
2023-02-04T01:23:58.261Z,74.89
2023-02-04T01:26:31.586Z,75.01
2023-02-04T01:29:06.368Z,74.87
2023-02-04T01:31:39.326Z,75.10
2023-02-04T01:34:12.311Z,75.16
2023-02-04T01:36:45.275Z,74.97
2023-02-04T01:39:18.209Z,75.28
2023-02-04T01:41:53.076Z,75.22
2023-02-04T01:44:27.515Z,75.04
2023-02-04T01:47:00.741Z,75.13
2023-02-04T01:49:33.945Z,75.19
2023-02-04T01:52:07.139Z,75.10
2023-02-04T01:54:40.191Z,75.20
2023-02-04T01:57:16.693Z,75.39
2023-02-04T02:02:45.310Z,75.26
2023-02-04T02:05:22.405Z,75.25
2023-02-04T02:07:58.300Z,75.28
2023-02-04T02:10:31.784Z,75.11
2023-02-04T02:13:06.230Z,75.16
2023-02-04T02:15:44.476Z,75.32
2023-02-04T02:18:18.969Z,75.35
2023-02-04T02:20:52.088Z,75.12
2023-02-04T02:23:34.069Z,75.28
2023-02-04T02:26:08.434Z,75.28
2023-02-04T02:28:41.572Z,75.32
2023-02-04T02:31:14.748Z,75.23
2023-02-04T02:33:48.877Z,75.15
2023-02-04T02:36:23.671Z,75.18
2023-02-04T02:38:58.914Z,75.32
2023-02-04T02:41:35.276Z,75.35
2023-02-04T02:44:08.706Z,75.22
2023-02-04T02:46:41.918Z,75.16
2023-02-04T02:49:17.242Z,75.24
2023-02-04T02:51:50.521Z,75.37
2023-02-04T02:54:25.844Z,75.42
2023-02-04T02:57:02.573Z,75.28
2023-02-04T02:59:35.542Z,75.31
2023-02-04T03:02:10.442Z,75.22
2023-02-04T03:04:48.717Z,75.41
2023-02-04T03:07:24.470Z,75.49
2023-02-04T03:09:57.465Z,75.26
2023-02-04T03:12:31.818Z,75.38
2023-02-04T03:15:06.336Z,75.24
2023-02-04T03:17:39.522Z,75.38
2023-02-04T03:20:13.085Z,75.37
2023-02-04T03:22:46.133Z,75.27
2023-02-04T03:25:20.479Z,75.21
2023-02-04T03:27:59.382Z,75.16
2023-02-04T03:30:32.905Z,75.21
2023-02-04T03:33:06.349Z,75.10
2023-02-04T03:35:39.310Z,74.98
2023-02-04T03:38:12.244Z,75.01
2023-02-04T03:40:45.622Z,75.03
2023-02-04T03:43:20.011Z,75.04
2023-02-04T03:45:52.992Z,74.95
2023-02-04T03:48:26.069Z,75.10
2023-02-04T03:50:59.000Z,74.94
2023-02-04T03:53:31.961Z,74.94
2023-02-04T03:56:05.381Z,74.89
2023-02-04T03:58:39.707Z,74.95
2023-02-04T04:01:12.750Z,75.03
2023-02-04T04:03:45.849Z,74.87
2023-02-04T04:06:18.798Z,75.02
2023-02-04T04:08:51.760Z,75.04
2023-02-04T04:11:24.802Z,74.95
2023-02-04T04:13:59.179Z,75.10
2023-02-04T04:16:32.536Z,75.10
2023-02-04T04:19:05.885Z,75.12
2023-02-04T04:21:38.866Z,74.98
2023-02-04T04:24:11.800Z,74.98
2023-02-04T04:26:44.729Z,74.94
2023-02-04T04:29:19.061Z,75.02
2023-02-04T04:31:52.153Z,75.01
2023-02-04T04:34:25.227Z,74.79
2023-02-04T04:36:58.258Z,74.78
2023-02-04T04:39:31.210Z,74.63
2023-02-04T04:42:04.144Z,74.66
2023-02-04T04:44:38.435Z,74.69
2023-02-04T04:47:11.388Z,74.81
2023-02-04T04:49:44.340Z,74.70
2023-02-04T04:52:17.289Z,74.69
2023-02-04T04:54:50.232Z,74.59
2023-02-04T04:57:23.190Z,74.58
2023-02-04T04:59:57.484Z,74.71
2023-02-04T05:02:30.427Z,74.51
2023-02-04T05:05:03.433Z,74.53
2023-02-04T05:07:36.424Z,74.55
2023-02-04T05:10:10.221Z,74.45
2023-02-04T05:12:43.188Z,74.30
2023-02-04T05:15:17.741Z,74.32
2023-02-04T05:17:50.712Z,74.23
2023-02-04T05:20:23.659Z,74.33
2023-02-04T05:22:57.044Z,74.15
2023-02-04T05:25:30.404Z,74.17
2023-02-04T05:28:03.357Z,74.36
2023-02-04T05:30:37.757Z,74.20
2023-02-04T05:33:10.773Z,74.12
2023-02-04T05:35:43.749Z,73.93
2023-02-04T05:38:16.693Z,74.10
2023-02-04T05:40:49.695Z,73.84
2023-02-04T05:43:22.766Z,73.96
2023-02-04T05:45:57.812Z,73.97
2023-02-04T05:48:30.848Z,74.00
2023-02-04T05:51:03.814Z,73.64
2023-02-04T05:53:36.798Z,73.83
2023-02-04T05:56:09.821Z,73.64
2023-02-04T05:58:42.779Z,73.69
2023-02-04T06:01:17.095Z,73.67
2023-02-04T06:03:50.167Z,73.79
2023-02-04T06:06:23.229Z,73.54
2023-02-04T06:08:56.276Z,73.62
2023-02-04T06:11:29.422Z,73.63
2023-02-04T06:14:02.388Z,73.64
2023-02-04T06:16:37.080Z,73.54
2023-02-04T06:19:10.248Z,73.60
2023-02-04T06:21:43.211Z,73.64
2023-02-04T06:24:16.176Z,73.59
2023-02-04T06:26:49.159Z,73.58
2023-02-04T06:29:22.107Z,73.52
2023-02-04T06:31:56.525Z,73.45
2023-02-04T06:34:29.763Z,73.48
2023-02-04T06:37:02.785Z,73.38
2023-02-04T06:39:35.887Z,73.38
2023-02-04T06:42:08.925Z,73.38
2023-02-04T06:44:41.896Z,73.47
2023-02-04T06:47:16.226Z,73.15
2023-02-04T06:49:49.331Z,73.17
2023-02-04T06:52:22.288Z,72.97
2023-02-04T06:54:55.275Z,72.94
2023-02-04T06:57:28.292Z,73.02
2023-02-04T07:00:01.273Z,73.19
2023-02-04T07:02:36.718Z,73.06
2023-02-04T07:05:10.442Z,72.98
2023-02-04T07:07:43.436Z,73.00
2023-02-04T07:10:17.472Z,72.92
2023-02-04T07:12:50.163Z,72.95
2023-02-04T07:15:23.147Z,72.78
2023-02-04T07:17:57.540Z,72.70
2023-02-04T07:20:30.866Z,72.59
2023-02-04T07:23:10.065Z,72.50
2023-02-04T07:25:44.190Z,72.57
2023-02-04T07:28:17.231Z,72.39
2023-02-04T07:30:50.374Z,72.07
2023-02-04T07:33:25.159Z,71.76
2023-02-04T07:35:58.409Z,71.43
2023-02-04T07:38:31.408Z,71.08
2023-02-04T07:41:04.386Z,70.71
2023-02-04T07:43:37.655Z,70.21
2023-02-04T07:46:10.649Z,69.76
2023-02-04T07:48:44.967Z,68.87
2023-02-04T07:51:17.957Z,68.01
2023-02-04T07:53:50.943Z,66.97
2023-02-04T07:56:23.969Z,65.84
2023-02-04T07:58:57.018Z,64.70
2023-02-04T08:01:30.129Z,63.18
2023-02-04T08:04:04.823Z,61.73
2023-02-04T08:06:37.856Z,60.08
2023-02-04T08:09:10.932Z,58.46
2023-02-04T08:11:44.362Z,57.33
2023-02-04T08:14:17.481Z,55.88
2023-02-04T08:16:50.564Z,54.78
2023-02-04T08:19:25.203Z,53.09
2023-02-04T08:21:58.212Z,51.59
2023-02-04T08:24:31.206Z,50.15
2023-02-04T08:27:04.185Z,48.87
2023-02-04T08:29:37.365Z,47.91
2023-02-04T08:32:13.233Z,46.49
2023-02-04T08:34:48.683Z,45.10
2023-02-04T08:37:21.663Z,44.08
2023-02-04T08:39:54.742Z,42.91
2023-02-04T08:42:27.937Z,41.97
2023-02-04T08:45:01.234Z,41.01
2023-02-04T08:47:34.313Z,40.28
2023-02-04T08:50:11.243Z,39.38
2023-02-04T08:52:44.608Z,38.56
2023-02-04T08:55:17.709Z,37.62
2023-02-04T08:57:50.693Z,36.84
2023-02-04T09:00:24.010Z,35.82
2023-02-04T09:02:57.357Z,35.33
2023-02-04T09:05:31.727Z,34.44
2023-02-04T09:08:04.728Z,33.56
2023-02-04T09:10:37.881Z,32.69
2023-02-04T09:13:11.782Z,32.36
2023-02-04T09:15:44.798Z,32.71
2023-02-04T09:18:20.101Z,33.98
2023-02-04T09:20:54.455Z,34.73
2023-02-04T09:23:27.619Z,35.69
2023-02-04T09:26:01.388Z,36.87
2023-02-04T09:28:34.194Z,39.11
2023-02-04T09:31:07.531Z,39.82
2023-02-04T09:33:40.586Z,40.77
2023-02-04T09:36:15.353Z,41.57
2023-02-04T09:38:48.342Z,42.29
2023-02-04T09:41:21.385Z,43.03
2023-02-04T09:43:54.553Z,43.72
2023-02-04T09:46:30.141Z,44.28
2023-02-04T09:49:03.679Z,45.18
2023-02-04T09:51:38.273Z,45.98
2023-02-04T09:54:15.379Z,46.76
2023-02-04T09:56:48.805Z,47.15
2023-02-04T09:59:24.000Z,47.51
2023-02-04T10:02:01.174Z,48.06
2023-02-04T10:04:34.239Z,48.23
2023-02-04T10:07:14.177Z,48.69
2023-02-04T10:09:49.336Z,48.57
2023-02-04T10:12:23.094Z,48.65
2023-02-04T10:14:56.249Z,47.06
2023-02-04T10:17:29.222Z,44.18
2023-02-04T10:20:02.424Z,41.25
2023-02-04T10:22:37.801Z,38.40
2023-02-04T10:25:15.328Z,35.91
2023-02-04T10:27:55.485Z,33.51
2023-02-04T10:30:33.608Z,31.94
2023-02-04T10:33:15.189Z,30.25
2023-02-04T10:35:51.137Z,28.20
2023-02-04T10:38:25.710Z,27.34
2023-02-04T10:41:02.781Z,26.22
2023-02-04T10:43:35.735Z,25.01
2023-02-04T10:46:08.781Z,24.21
2023-02-04T10:48:43.200Z,23.50
2023-02-04T10:51:16.367Z,22.97
2023-02-04T10:54:08.408Z,21.92
2023-02-04T10:56:41.891Z,21.34
2023-02-04T10:59:26.811Z,20.62
2023-02-04T11:02:01.843Z,20.09
2023-02-04T11:04:34.837Z,20.81
2023-02-04T11:07:13.880Z,22.04
2023-02-04T11:09:49.330Z,23.59
2023-02-04T11:12:23.019Z,24.60
2023-02-04T11:14:57.217Z,26.63
2023-02-04T11:17:32.019Z,28.15
2023-02-04T11:20:18.516Z,30.04
2023-02-04T11:22:57.336Z,31.64
2023-02-04T11:25:38.583Z,32.52
2023-02-04T11:28:15.730Z,33.74
2023-02-04T11:31:00.778Z,34.83
2023-02-04T11:33:41.475Z,35.85
2023-02-04T11:36:18.816Z,36.39
2023-02-04T11:38:51.862Z,36.06
2023-02-04T11:41:29.266Z,34.79
2023-02-04T11:44:02.327Z,32.47
2023-02-04T11:46:35.362Z,30.98
2023-02-04T11:49:18.066Z,29.14
2023-02-04T11:51:51.700Z,27.40
2023-02-04T11:54:24.959Z,27.78
2023-02-04T11:57:01.271Z,25.47
2023-02-04T11:59:34.384Z,24.91
2023-02-04T12:02:22.757Z,24.00
2023-02-04T12:04:59.978Z,23.86
2023-02-04T12:07:33.172Z,23.34
2023-02-04T12:10:13.663Z,24.43
2023-02-04T12:12:51.569Z,25.14
2023-02-04T12:15:26.531Z,25.86
2023-02-04T12:18:04.383Z,25.77
2023-02-04T12:20:38.137Z,26.07
2023-02-04T12:23:13.053Z,26.14
2023-02-04T12:25:46.121Z,26.16
2023-02-04T12:28:21.178Z,26.29
2023-02-04T12:30:54.471Z,27.20
2023-02-04T12:33:27.824Z,27.66
2023-02-04T12:36:01.958Z,28.15
2023-02-04T12:38:35.013Z,29.69
2023-02-04T12:41:10.785Z,31.32
2023-02-04T12:43:45.326Z,32.75
2023-02-04T12:46:18.991Z,34.19
2023-02-04T12:48:51.938Z,35.13
2023-02-04T12:51:25.094Z,37.09
2023-02-04T12:53:58.153Z,38.30
2023-02-04T12:56:32.648Z,39.31
2023-02-04T12:59:07.178Z,40.40
2023-02-04T13:01:40.169Z,40.97
2023-02-04T13:04:13.211Z,41.84
2023-02-04T13:06:46.202Z,42.46
2023-02-04T13:09:19.174Z,42.54
2023-02-04T13:11:52.379Z,43.19
2023-02-04T13:14:26.873Z,43.59
2023-02-04T13:16:59.992Z,43.96
2023-02-04T13:19:33.208Z,44.20
2023-02-04T13:22:06.230Z,44.44
2023-02-04T13:24:39.241Z,44.66
2023-02-04T13:27:12.273Z,44.77
2023-02-04T13:29:46.847Z,44.14
2023-02-04T13:32:19.822Z,43.10
2023-02-04T13:34:52.915Z,42.15
2023-02-04T13:37:26.053Z,40.94
2023-02-04T13:39:59.108Z,40.59
2023-02-04T13:42:32.083Z,40.56
2023-02-04T13:45:12.588Z,39.86
2023-02-04T13:47:48.136Z,40.20
2023-02-04T13:50:21.316Z,40.73
2023-02-04T13:52:55.273Z,41.15
2023-02-04T13:55:27.982Z,41.35
2023-02-04T13:58:00.966Z,42.43
2023-02-04T14:00:35.801Z,43.13
2023-02-04T14:03:11.735Z,44.05
2023-02-04T14:05:44.906Z,44.78
2023-02-04T14:08:18.220Z,45.50
2023-02-04T14:10:51.259Z,45.99
2023-02-04T14:13:24.244Z,46.61
2023-02-04T14:15:58.711Z,47.17
2023-02-04T14:18:31.663Z,47.99
2023-02-04T14:21:04.971Z,48.85
2023-02-04T14:23:38.320Z,49.45
2023-02-04T14:26:20.157Z,50.09
2023-02-04T14:28:53.183Z,50.65
2023-02-04T14:31:27.641Z,51.25
2023-02-04T14:34:00.728Z,51.64
2023-02-04T14:36:33.703Z,51.93
2023-02-04T14:39:06.763Z,52.23
2023-02-04T14:41:39.778Z,52.63
2023-02-04T14:44:13.272Z,52.78
2023-02-04T14:46:48.705Z,53.42
2023-02-04T14:49:21.708Z,53.77
2023-02-04T14:51:54.934Z,54.13
2023-02-04T14:54:28.002Z,54.23
2023-02-04T14:57:01.016Z,54.75
2023-02-04T14:59:34.072Z,54.87
2023-02-04T15:02:09.025Z,55.51
2023-02-04T15:04:42.058Z,55.64
2023-02-04T15:07:15.099Z,55.91
2023-02-04T15:09:48.443Z,55.76
2023-02-04T15:12:22.591Z,56.07
2023-02-04T15:14:55.317Z,54.73
2023-02-04T15:17:32.415Z,55.55
2023-02-04T15:20:06.077Z,55.90
2023-02-04T15:22:39.085Z,55.90
2023-02-04T15:25:13.899Z,56.24
2023-02-04T15:27:46.967Z,56.73
2023-02-04T15:30:20.358Z,56.90
2023-02-04T15:32:54.978Z,57.16
2023-02-04T15:35:28.104Z,57.45
2023-02-04T15:38:01.075Z,57.53
2023-02-04T15:40:34.337Z,57.64
2023-02-04T15:43:07.697Z,57.77
2023-02-04T15:45:43.907Z,57.93
2023-02-04T15:48:19.698Z,58.07
2023-02-04T15:50:52.797Z,58.36
2023-02-04T15:53:28.819Z,58.43
2023-02-04T15:56:02.445Z,58.49
2023-02-04T15:58:36.988Z,58.44
2023-02-04T16:01:10.633Z,58.95
2023-02-04T16:03:46.834Z,58.95
2023-02-04T16:06:21.025Z,58.98
2023-02-04T16:08:54.300Z,59.23
2023-02-04T16:11:27.636Z,59.51
2023-02-04T16:14:00.866Z,59.57
2023-02-04T16:16:38.752Z,59.63
2023-02-04T16:19:14.392Z,59.90
2023-02-04T16:21:48.085Z,60.09
2023-02-04T16:24:23.707Z,60.34
2023-02-04T16:26:56.836Z,60.31
2023-02-04T16:29:35.094Z,60.18
2023-02-04T16:32:09.877Z,60.25
2023-02-04T16:34:44.255Z,60.26
2023-02-04T16:37:17.858Z,60.20
2023-02-04T16:39:51.579Z,60.05
2023-02-04T16:42:24.742Z,60.06
2023-02-04T16:44:58.037Z,60.07
2023-02-04T16:47:31.123Z,59.93
2023-02-04T16:50:05.971Z,60.15
2023-02-04T16:52:39.035Z,60.25
2023-02-04T16:55:12.499Z,59.96
2023-02-04T16:57:45.472Z,60.07
2023-02-04T17:00:19.231Z,60.20
2023-02-04T17:02:52.327Z,60.04
2023-02-04T17:05:26.978Z,60.35
2023-02-04T17:07:59.934Z,60.52
2023-02-04T17:10:50.711Z,60.54
2023-02-04T17:13:23.929Z,60.73
2023-02-04T17:16:00.880Z,60.62
2023-02-04T17:18:34.186Z,60.92
2023-02-04T17:21:08.571Z,60.95
2023-02-04T17:23:41.995Z,60.97
2023-02-04T17:26:15.125Z,61.08
2023-02-04T17:28:48.117Z,61.08
2023-02-04T17:31:21.132Z,61.22
2023-02-04T17:33:54.219Z,61.15
2023-02-04T17:36:29.347Z,61.32
2023-02-04T17:39:02.578Z,61.21
2023-02-04T17:41:35.841Z,61.13
2023-02-04T17:44:08.830Z,61.24
2023-02-04T17:46:41.876Z,61.13
2023-02-04T17:49:14.968Z,61.28
2023-02-04T17:51:49.316Z,61.36
2023-02-04T17:54:22.353Z,61.46
2023-02-04T17:56:57.935Z,61.66
2023-02-04T17:59:31.027Z,61.54
2023-02-04T18:02:11.241Z,61.51
2023-02-04T18:04:45.338Z,61.38
2023-02-04T18:07:19.750Z,61.54
2023-02-04T18:09:52.850Z,61.38
2023-02-04T18:12:25.813Z,61.49
2023-02-04T18:15:00.224Z,61.61
2023-02-04T18:17:33.740Z,61.44
2023-02-04T18:20:18.264Z,61.56
2023-02-04T18:22:56.374Z,61.57
2023-02-04T18:25:32.980Z,61.78
2023-02-04T18:28:15.326Z,61.81
2023-02-04T18:30:52.091Z,61.97
2023-02-04T18:33:27.627Z,61.85
2023-02-04T18:36:03.051Z,62.02
2023-02-04T18:38:42.852Z,62.07
2023-02-04T18:41:31.402Z,62.21
2023-02-04T18:44:27.533Z,62.02
2023-02-04T18:47:02.678Z,62.09
2023-02-04T18:49:39.675Z,62.34
2023-02-04T18:52:18.796Z,62.37
2023-02-04T18:54:54.896Z,62.44
2023-02-04T18:57:36.775Z,62.42
2023-02-04T19:00:32.525Z,62.34
2023-02-04T19:03:21.317Z,62.58
2023-02-04T19:05:55.867Z,62.76
2023-02-04T19:08:30.324Z,62.70
2023-02-04T19:11:04.825Z,62.92
2023-02-04T19:13:40.632Z,62.95
2023-02-04T19:16:23.804Z,62.88
2023-02-04T19:18:58.112Z,62.80
2023-02-04T19:21:32.186Z,62.95
2023-02-04T19:24:15.493Z,62.27
2023-02-04T19:26:54.942Z,62.48
2023-02-04T19:29:39.367Z,62.58
2023-02-04T19:32:28.711Z,62.71
2023-02-04T19:35:13.810Z,62.79
2023-02-04T19:37:51.843Z,63.11
2023-02-04T19:40:33.500Z,63.17
2023-02-04T19:43:22.299Z,63.29
2023-02-04T19:45:55.683Z,63.46
2023-02-04T19:48:34.690Z,63.51
2023-02-04T19:51:23.779Z,63.49
2023-02-04T19:54:02.660Z,63.48
2023-02-04T19:56:37.365Z,63.66
2023-02-04T19:59:24.548Z,63.54
2023-02-04T20:02:03.653Z,63.74
2023-02-04T20:04:40.865Z,63.66
2023-02-04T20:07:21.016Z,63.73
2023-02-04T20:09:58.372Z,63.88
2023-02-04T20:12:33.975Z,64.06
2023-02-04T20:15:18.438Z,63.92
2023-02-04T20:17:54.801Z,64.03
2023-02-04T20:20:29.931Z,63.88
2023-02-04T20:23:15.703Z,64.17
2023-02-04T20:25:49.505Z,64.13
2023-02-04T20:28:37.888Z,64.17
2023-02-04T20:31:26.439Z,64.25
2023-02-04T20:34:01.604Z,64.16
2023-02-04T20:36:38.499Z,64.45
2023-02-04T20:39:27.838Z,64.38
2023-02-04T20:42:36.450Z,64.34
2023-02-04T20:45:27.866Z,64.29
2023-02-04T20:48:28.101Z,64.14
2023-02-04T20:51:03.936Z,64.33
2023-02-04T20:53:40.456Z,64.41
2023-02-04T20:56:24.401Z,64.47
2023-02-04T20:59:05.005Z,64.57
2023-02-04T21:01:40.693Z,64.62
2023-02-04T21:04:21.480Z,64.67
2023-02-04T21:06:56.062Z,64.56
2023-02-04T21:09:32.253Z,64.60
2023-02-04T21:12:08.586Z,64.58
2023-02-04T21:14:42.356Z,64.67
2023-02-04T21:17:18.442Z,64.64
2023-02-04T21:19:53.013Z,64.88
2023-02-04T21:22:27.885Z,64.81
2023-02-04T21:25:00.928Z,64.92
2023-02-04T21:27:34.144Z,64.85
2023-02-04T21:30:08.518Z,64.76
2023-02-04T21:32:41.897Z,64.96
2023-02-04T21:35:21.381Z,64.99
2023-02-04T21:37:55.589Z,64.99
2023-02-04T21:40:28.933Z,64.88
2023-02-04T21:43:05.823Z,64.90
2023-02-04T21:45:39.809Z,64.94
2023-02-04T21:48:14.671Z,65.07
2023-02-04T21:50:49.098Z,65.15
2023-02-04T21:53:24.192Z,65.01
2023-02-04T21:55:59.307Z,65.08
2023-02-04T21:58:32.696Z,65.26
2023-02-04T22:01:06.182Z,65.09
2023-02-04T22:03:39.397Z,65.16
2023-02-04T22:06:13.930Z,65.22
2023-02-04T22:08:47.309Z,65.25
2023-02-04T22:11:20.730Z,65.11
2023-02-04T22:13:53.849Z,65.04
2023-02-04T22:16:26.940Z,65.25
2023-02-04T22:19:02.733Z,65.10
2023-02-04T22:21:38.178Z,65.40
2023-02-04T22:24:11.147Z,65.34
2023-02-04T22:26:44.160Z,65.30
2023-02-04T22:29:21.701Z,65.25
2023-02-04T22:31:54.805Z,65.25
2023-02-04T22:34:28.530Z,65.46
2023-02-04T22:37:02.984Z,65.24
2023-02-04T22:39:36.254Z,65.30
2023-02-04T22:42:09.898Z,65.42
2023-02-04T22:44:45.025Z,65.24
2023-02-04T22:47:21.425Z,65.28
2023-02-04T22:49:54.742Z,65.32
2023-02-04T22:52:29.210Z,65.42
2023-02-04T22:55:02.204Z,65.27
2023-02-04T22:57:35.191Z,65.40
2023-02-04T23:00:10.625Z,65.41
2023-02-04T23:02:43.631Z,65.48
2023-02-04T23:05:16.600Z,65.30
2023-02-04T23:07:52.769Z,65.40
2023-02-04T23:10:25.820Z,65.28
2023-02-04T23:12:58.818Z,65.31
2023-02-04T23:15:34.967Z,65.15
2023-02-04T23:18:13.680Z,65.39
2023-02-04T23:20:48.676Z,65.23
2023-02-04T23:23:23.103Z,65.39
2023-02-04T23:25:56.203Z,65.47
2023-02-04T23:28:29.215Z,65.57
2023-02-04T23:31:02.496Z,65.35
2023-02-04T23:33:35.749Z,65.46
2023-02-04T23:36:09.536Z,65.46
2023-02-04T23:38:43.940Z,65.54
2023-02-04T23:41:16.956Z,65.42
2023-02-04T23:43:51.766Z,65.56
2023-02-04T23:46:26.010Z,65.57
2023-02-04T23:48:59.230Z,65.58
2023-02-04T23:51:32.425Z,65.42
2023-02-04T23:57:15.719Z,65.30
2023-02-04T23:59:48.817Z,65.21
